Time;durP1;ratioP1;P1;durP2;ratioP2;P2;SDS_P1;SDS_P2;PMS_P1;PMS_P2;Temp;Humidity;BMP_temperature;BMP_pressure;BME280_temperature;BME280_humidity;BME280_pressure;Samples;Min_cycle;Max_cycle;Signal;HPM_P1;HPM_P2
2022/07/28 00:02:16;;;;;;;1.27;1.10;;;22.90;47.10;;;-142.21;43.53;112049.66;5055799;28;20297;-73
2022/07/28 00:04:44;;;;;;;2.57;1.33;;;22.90;47.20;;;-142.21;43.55;112049.66;5065595;28;20284;-72
2022/07/28 00:07:11;;;;;;;1.10;1.00;;;22.90;47.20;;;-142.21;43.72;112049.66;5069575;28;20682;-72
2022/07/28 00:09:38;;;;;;;1.30;1.20;;;22.80;47.10;;;-142.21;43.58;112049.66;5067485;28;20252;-73
2022/07/28 00:12:08;;;;;;;2.20;1.17;;;22.80;47.10;;;-142.21;43.55;112049.66;5072262;28;20205;-73
2022/07/28 00:14:35;;;;;;;2.20;1.47;;;22.70;47.00;;;-142.21;43.84;112049.66;5061549;28;20280;-73
2022/07/28 00:17:02;;;;;;;2.93;1.60;;;22.70;47.00;;;-142.21;44.02;112049.66;5052952;28;20697;-73
2022/07/28 00:19:29;;;;;;;1.80;1.40;;;22.70;47.70;;;-142.21;44.15;112049.66;5056260;28;20204;-73
2022/07/28 00:21:57;;;;;;;1.97;1.10;;;22.70;47.50;;;-142.21;44.35;112049.66;5068773;28;20201;-74
2022/07/28 00:24:24;;;;;;;2.63;1.30;;;22.60;47.50;;;-142.21;44.74;112049.66;5065790;28;20284;-72
2022/07/28 00:26:51;;;;;;;1.43;1.10;;;22.60;47.80;;;-142.21;45.05;112049.66;5066477;28;20236;-73
2022/07/28 00:29:20;;;;;;;3.03;1.37;;;22.50;47.90;;;-142.21;45.31;112049.66;5054802;28;20235;-72
2022/07/28 00:31:47;;;;;;;1.60;1.30;;;22.50;48.10;;;-142.21;45.53;112049.66;5064251;28;20669;-73
2022/07/28 00:41:54;;;;;;;2.13;1.10;;;22.50;48.30;;;-142.21;45.45;112049.66;5067136;28;20220;-73
2022/07/28 00:44:23;;;;;;;2.70;1.40;;;22.40;48.30;;;-142.21;45.47;112049.66;5055169;28;20212;-72
2022/07/28 00:46:51;;;;;;;3.87;1.30;;;22.40;48.20;;;-142.21;45.06;112049.66;5067090;28;20288;-73
2022/07/28 00:49:18;;;;;;;1.77;1.30;;;22.40;47.90;;;-142.21;45.20;112049.66;5069594;28;20308;-73
2022/07/28 00:51:46;;;;;;;2.00;1.57;;;22.40;48.00;;;-142.21;45.08;112049.66;5071892;28;20209;-73
2022/07/28 00:54:14;;;;;;;1.47;1.27;;;22.40;47.90;;;-142.21;45.02;112049.66;5053080;28;20208;-73
2022/07/28 00:56:41;;;;;;;1.90;0.93;;;22.40;48.50;;;-142.21;44.75;112049.66;5057772;28;20542;-72
2022/07/28 00:59:08;;;;;;;2.37;1.47;;;22.40;47.80;;;-142.21;44.76;112049.66;5060602;28;20225;-72
2022/07/28 01:01:37;;;;;;;1.37;1.10;;;22.30;47.80;;;-142.21;44.86;112049.66;5067320;28;20236;-72
2022/07/28 01:04:05;;;;;;;2.83;1.43;;;22.30;47.90;;;-142.21;45.18;112049.66;5055791;28;20231;-73
2022/07/28 01:06:52;;;;;;;1.53;1.33;;;22.30;47.90;;;-142.21;45.27;112049.66;5060397;28;20219;-73
2022/07/28 01:09:42;;;;;;;1.57;1.47;;;22.30;48.10;;;-142.21;45.53;112049.66;5063776;28;20585;-73
2022/07/28 01:12:22;;;;;;;1.37;1.00;;;22.30;48.20;;;-142.21;45.22;112049.66;5057011;28;20205;-73
2022/07/28 01:14:56;;;;;;;1.43;1.33;;;22.30;47.90;;;-142.21;45.07;112049.66;5061576;28;20207;-73
2022/07/28 01:17:35;;;;;;;1.37;1.27;;;22.30;47.90;;;-142.21;45.15;112049.66;5066308;28;20548;-72
2022/07/28 01:20:11;;;;;;;1.40;1.10;;;22.30;48.00;;;-142.21;45.17;112049.66;5071595;28;20282;-73
2022/07/28 01:22:55;;;;;;;0.87;0.87;;;22.20;47.90;;;-142.21;44.97;112049.66;5067034;28;20189;-73
2022/07/28 01:25:39;;;;;;;2.10;0.90;;;22.30;47.80;;;-142.21;44.53;112049.66;5041225;28;20681;-72
2022/07/28 01:28:24;;;;;;;1.60;1.00;;;22.20;47.60;;;-142.21;44.76;112049.66;5060445;28;20552;-73
2022/07/28 01:31:05;;;;;;;1.10;1.00;;;22.30;47.70;;;-142.21;44.60;112049.66;5061772;28;20216;-72
2022/07/28 01:33:42;;;;;;;1.47;1.23;;;22.30;47.60;;;-142.21;44.74;112049.66;5064070;28;20668;-72
2022/07/28 01:36:14;;;;;;;2.23;1.30;;;22.30;47.70;;;-142.21;45.14;112049.66;5065086;28;20194;-73
2022/07/28 01:38:44;;;;;;;1.33;1.17;;;22.30;47.70;;;-142.21;44.90;112049.66;5056286;28;20198;-73
2022/07/28 01:41:19;;;;;;;1.83;1.40;;;22.20;47.60;;;-142.21;45.17;112049.66;5055616;28;20668;-73
2022/07/28 01:43:57;;;;;;;1.87;1.27;;;22.20;47.70;;;-142.21;45.34;112049.66;5055743;28;20224;-73
2022/07/28 01:46:27;;;;;;;2.07;1.10;;;22.20;47.80;;;-142.21;45.15;112049.66;5059733;28;20289;-73
2022/07/28 01:48:58;;;;;;;1.10;1.00;;;22.20;47.70;;;-142.21;44.96;112049.66;5069053;28;20240;-73
2022/07/28 01:51:29;;;;;;;1.43;1.07;;;22.20;47.70;;;-142.21;44.91;112049.66;5055977;28;20579;-73
2022/07/28 01:54:00;;;;;;;1.90;1.30;;;22.20;47.60;;;-142.21;44.47;112049.66;5056248;28;20190;-73
2022/07/28 01:56:30;;;;;;;1.47;1.00;;;22.20;47.50;;;-142.21;44.51;112049.66;5055724;28;20701;-72
2022/07/28 01:59:04;;;;;;;1.80;0.90;;;22.20;47.50;;;-142.21;44.75;112049.66;5062566;28;20221;-73
2022/07/28 02:01:36;;;;;;;2.80;1.27;;;22.20;47.50;;;-142.21;44.73;112049.66;5060858;28;20202;-73
2022/07/28 02:04:06;;;;;;;1.30;0.90;;;22.20;47.50;;;-142.21;44.76;112049.66;5065032;28;20222;-73
2022/07/28 02:06:35;;;;;;;1.87;1.00;;;22.20;47.50;;;-142.21;44.56;112049.66;5056691;28;20211;-73
2022/07/28 02:09:05;;;;;;;1.77;0.90;;;22.20;47.50;;;-142.21;44.65;112049.66;5074834;28;20243;-73
2022/07/28 02:11:41;;;;;;;1.23;1.00;;;22.10;47.50;;;-142.21;44.76;112049.66;5066666;28;20276;-73
2022/07/28 02:14:15;;;;;;;2.10;1.00;;;22.10;47.50;;;-142.21;44.85;112049.66;5064174;28;20205;-73
2022/07/28 02:16:49;;;;;;;1.30;1.20;;;22.10;47.50;;;-142.21;44.76;112049.66;5072522;28;20194;-72
2022/07/28 02:19:19;;;;;;;1.30;1.20;;;22.10;47.50;;;-142.21;44.97;112049.66;5058408;28;20181;-73
2022/07/28 02:21:49;;;;;;;1.80;1.00;;;22.00;47.60;;;-142.21;45.73;112049.66;5056826;28;20545;-73
2022/07/28 02:24:25;;;;;;;2.63;1.30;;;22.00;48.00;;;-142.21;45.82;112049.66;5063547;28;20289;-73
2022/07/28 02:26:59;;;;;;;1.63;1.20;;;21.90;48.00;;;-142.21;45.72;112049.66;5068995;28;20276;-73
2022/07/28 02:29:31;;;;;;;1.73;1.43;;;21.90;48.10;;;-142.21;45.65;112049.66;5059840;28;20216;-73
2022/07/28 02:32:12;;;;;;;1.43;1.33;;;21.90;48.10;;;-142.21;46.04;112049.66;5067516;28;20194;-73
2022/07/28 02:34:41;;;;;;;1.97;1.17;;;21.90;48.30;;;-142.21;46.44;112049.66;5071158;28;20198;-73
2022/07/28 02:37:11;;;;;;;2.87;1.20;;;21.80;48.30;;;-142.21;46.68;112049.66;5074872;28;20220;-73
2022/07/28 02:39:45;;;;;;;1.47;1.23;;;21.80;48.40;;;-142.21;46.89;112049.66;5084757;28;20182;-73
2022/07/28 02:42:18;;;;;;;3.20;1.60;;;21.70;48.60;;;-142.21;47.02;112049.66;5087729;28;20197;-72
2022/07/28 02:44:55;;;;;;;1.00;0.90;;;21.70;48.60;;;-142.21;47.08;112049.66;5071706;28;20205;-72
2022/07/28 02:47:28;;;;;;;1.67;1.10;;;21.70;48.80;;;-142.21;47.54;112049.66;5060638;28;20200;-72
2022/07/28 02:49:58;;;;;;;1.40;1.30;;;21.60;48.80;;;-142.21;47.56;112049.66;5055211;28;20249;-73
2022/07/28 02:52:28;;;;;;;2.00;1.23;;;21.60;49.00;;;-142.21;47.55;112049.66;5071133;28;20212;-73
2022/07/28 02:54:58;;;;;;;1.00;1.00;;;21.60;49.00;;;-142.21;47.70;112049.66;5070152;28;20205;-73
2022/07/28 02:57:27;;;;;;;2.40;1.37;;;21.60;49.00;;;-142.21;48.03;112049.66;5067192;28;20189;-73
2022/07/28 02:59:56;;;;;;;1.30;1.20;;;21.60;49.20;;;-142.21;48.37;112049.66;5068961;28;20284;-72
2022/07/28 03:02:25;;;;;;;1.47;1.20;;;21.50;49.20;;;-142.21;48.78;112049.66;5057703;28;20197;-73
2022/07/28 03:04:57;;;;;;;1.37;1.10;;;21.50;49.40;;;-142.21;48.86;112049.66;5071586;28;20239;-73
2022/07/28 03:07:25;;;;;;;3.93;1.30;;;21.40;49.40;;;-142.21;49.14;112049.66;5064918;28;20550;-74
2022/07/28 03:09:53;;;;;;;1.87;1.43;;;21.40;49.50;;;-142.21;49.31;112049.66;5055424;28;20741;-73
2022/07/28 03:12:20;;;;;;;1.97;1.10;;;21.30;49.60;;;-142.21;49.68;112049.66;5064949;28;20204;-73
2022/07/28 03:14:47;;;;;;;3.67;1.60;;;21.30;49.80;;;-142.21;50.30;112049.66;5055909;28;20205;-72
2022/07/28 03:17:15;;;;;;;1.60;1.40;;;21.30;50.10;;;-142.21;50.72;112049.66;5065995;28;20202;-74
2022/07/28 03:19:44;;;;;;;2.27;1.10;;;21.30;50.10;;;-142.21;51.28;112049.66;5054454;28;20205;-73
2022/07/28 03:22:11;;;;;;;1.43;1.10;;;21.30;50.20;;;-142.21;51.24;112049.66;5053911;28;20280;-72
2022/07/28 03:24:42;;;;;;;2.13;1.70;;;21.30;50.20;;;-142.21;51.30;112049.66;5069219;28;20572;-72
2022/07/28 03:27:20;;;;;;;1.43;1.33;;;21.20;50.10;;;-142.21;51.69;112049.66;5061637;28;20193;-72
2022/07/28 03:29:50;;;;;;;2.80;1.40;;;21.20;50.80;;;-142.21;51.75;112049.66;5057593;28;20206;-72
2022/07/28 03:32:20;;;;;;;2.20;1.30;;;21.20;50.30;;;-142.21;52.25;112049.66;5072544;28;20640;-73
2022/07/28 03:34:51;;;;;;;1.93;1.50;;;21.20;50.50;;;-142.21;52.26;112049.66;5069413;28;20209;-73
2022/07/28 03:37:26;;;;;;;2.93;1.33;;;21.10;50.40;;;-142.21;52.53;112049.66;5067909;28;20193;-73
2022/07/28 03:39:58;;;;;;;1.40;1.27;;;21.10;50.60;;;-142.21;52.96;112049.66;5071534;28;20671;-73
2022/07/28 03:42:28;;;;;;;1.23;1.13;;;21.00;50.70;;;-142.21;53.28;112049.66;5072095;28;20189;-73
2022/07/28 03:44:56;;;;;;;2.07;1.10;;;21.00;51.00;;;-142.21;54.02;112049.66;5069847;28;20198;-73
2022/07/28 03:47:25;;;;;;;2.33;1.67;;;20.90;51.30;;;-142.21;54.67;112049.66;5068933;28;20211;-73
2022/07/28 03:49:53;;;;;;;3.37;1.63;;;20.90;51.30;;;-142.21;54.86;112049.66;5056299;28;20271;-73
2022/07/28 03:52:21;;;;;;;2.80;1.50;;;20.80;51.50;;;-142.21;55.51;112049.66;5054239;28;20202;-73
2022/07/28 03:54:48;;;;;;;1.60;1.40;;;20.90;51.80;;;-142.21;56.04;112049.66;5056712;28;20704;-72
2022/07/28 03:57:15;;;;;;;3.07;1.37;;;20.80;51.70;;;-142.21;56.29;112049.66;5054798;28;20201;-72
2022/07/28 03:59:43;;;;;;;1.97;1.50;;;20.90;51.90;;;-142.21;56.55;112049.66;5055489;28;20276;-72
2022/07/28 04:02:10;;;;;;;1.80;1.50;;;20.80;51.80;;;-142.21;56.32;112049.66;5064789;28;20194;-73
2022/07/28 04:04:38;;;;;;;1.50;1.40;;;20.80;51.90;;;-142.21;56.64;112049.66;5055087;28;20291;-73
2022/07/28 04:07:07;;;;;;;4.47;1.80;;;20.70;52.10;;;-142.21;56.96;112049.66;5061838;28;20197;-73
2022/07/28 04:09:34;;;;;;;2.47;1.33;;;20.70;52.10;;;-142.21;58.33;112049.66;5053214;28;20235;-73
2022/07/28 04:12:01;;;;;;;7.50;2.30;;;20.70;52.40;;;-142.21;59.94;112049.66;5055110;28;20197;-73
2022/07/28 04:14:28;;;;;;;3.80;2.00;;;20.70;53.00;;;-142.21;60.51;112049.66;5059488;28;20664;-73
2022/07/28 04:16:55;;;;;;;4.93;1.70;;;20.70;53.20;;;-142.21;61.15;112049.66;5062482;28;20537;-72
2022/07/28 04:19:22;;;;;;;5.23;1.90;;;20.70;53.50;;;-142.21;62.16;112049.66;5060482;28;20658;-72
2022/07/28 04:21:49;;;;;;;4.87;1.70;;;20.60;53.40;;;-142.21;61.20;112049.66;5052619;28;20603;-73
2022/07/28 04:24:20;;;;;;;2.60;2.00;;;20.60;53.30;;;-142.21;61.41;112049.66;5057639;28;20197;-72
2022/07/28 04:26:47;;;;;;;2.80;1.70;;;20.60;53.40;;;-142.21;62.65;112049.66;5063577;28;20696;-73
2022/07/28 04:29:14;;;;;;;2.37;1.33;;;20.60;53.90;;;-142.21;63.66;112049.66;5062173;28;20646;-72
2022/07/28 04:31:41;;;;;;;3.13;1.90;;;20.60;54.20;;;-142.21;64.90;112049.66;5070484;28;20201;-73
2022/07/28 04:34:09;;;;;;;1.53;1.43;;;20.60;54.40;;;-142.21;65.16;112049.66;5054866;28;20202;-73
2022/07/28 04:36:40;;;;;;;2.83;1.60;;;20.60;54.70;;;-142.21;66.35;112049.66;5069694;28;20201;-73
2022/07/28 04:39:09;;;;;;;4.73;1.70;;;20.60;54.80;;;-142.21;67.17;112049.66;5065737;28;20213;-73
2022/07/28 04:41:40;;;;;;;5.20;1.83;;;20.70;55.20;;;-142.21;64.77;112049.66;5065472;28;20198;-73
2022/07/28 04:44:10;;;;;;;5.30;2.30;;;20.60;54.40;;;-142.21;65.79;112049.66;5064417;28;20216;-73
2022/07/28 04:46:37;;;;;;;6.97;2.20;;;20.70;54.60;;;-142.21;67.13;112049.66;5071943;28;20237;-74
2022/07/28 04:49:05;;;;;;;8.30;2.37;;;20.70;55.10;;;-142.21;67.99;112049.66;5067570;28;20227;-72
2022/07/28 04:51:32;;;;;;;4.73;2.37;;;20.70;55.40;;;-142.21;68.14;112049.66;5055606;28;20210;-73
2022/07/28 04:53:59;;;;;;;4.50;2.50;;;20.70;55.60;;;-142.21;67.17;112049.66;5052400;28;20300;-73
2022/07/28 04:56:26;;;;;;;4.97;2.80;;;20.70;55.10;;;-142.21;67.55;112049.66;5055766;28;20201;-74
2022/07/28 04:58:58;;;;;;;7.40;2.30;;;20.70;55.20;;;-142.21;66.75;112049.66;5067643;28;20202;-73
2022/07/28 05:01:25;;;;;;;10.83;4.47;;;20.80;55.10;;;-142.21;68.45;112049.66;5057982;28;20201;-73
2022/07/28 05:03:52;;;;;;;2.97;2.17;;;20.80;55.40;;;-142.21;67.54;112049.66;5053922;28;20221;-74
2022/07/28 05:06:19;;;;;;;8.27;2.77;;;20.80;55.20;;;-142.21;66.63;112049.66;5059710;28;20203;-73
2022/07/28 05:08:48;;;;;;;3.13;1.70;;;20.80;55.00;;;-142.21;65.21;112049.66;5066530;28;20243;-73
2022/07/28 05:11:16;;;;;;;1.50;1.37;;;20.90;54.70;;;-142.21;64.71;112049.66;5052547;28;20271;-73
2022/07/28 05:13:43;;;;;;;1.50;1.40;;;20.80;54.30;;;-142.21;64.84;112049.66;5056825;28;20197;-73
2022/07/28 05:16:14;;;;;;;1.50;1.40;;;20.90;55.00;;;-142.21;64.90;112049.66;5057884;28;20197;-73
2022/07/28 05:18:42;;;;;;;2.97;1.40;;;20.80;54.50;;;-142.21;64.36;112049.66;5069892;28;20228;-73
2022/07/28 05:21:09;;;;;;;1.97;1.30;;;20.90;54.30;;;-142.21;64.76;112049.66;5072444;28;20205;-73
2022/07/28 05:23:36;;;;;;;3.90;1.60;;;20.90;54.30;;;-142.21;64.53;112049.66;5071497;28;20613;-73
2022/07/28 05:26:05;;;;;;;2.13;1.73;;;21.00;54.40;;;-142.21;63.55;112049.66;5072370;28;20201;-73
2022/07/28 05:28:33;;;;;;;2.03;1.50;;;21.00;54.10;;;-142.21;64.21;112049.66;5069446;28;20236;-73
2022/07/28 05:31:00;;;;;;;1.23;1.13;;;21.10;54.30;;;-142.21;63.43;112049.66;5052860;28;20230;-73
2022/07/28 05:33:29;;;;;;;2.53;1.50;;;21.10;54.00;;;-142.21;64.18;112049.66;5032471;28;20198;-73
2022/07/28 05:35:57;;;;;;;3.33;1.50;;;21.20;54.30;;;-142.21;64.16;112049.66;5051897;28;20662;-72
2022/07/28 05:38:25;;;;;;;2.63;1.40;;;21.20;54.30;;;-142.21;64.44;112049.66;5067275;28;20205;-72
2022/07/28 05:40:52;;;;;;;1.37;1.27;;;21.20;54.30;;;-142.21;64.36;112049.66;5070904;28;20284;-72
2022/07/28 05:43:20;;;;;;;3.13;1.40;;;21.30;54.30;;;-142.21;64.29;112049.66;5072772;28;20211;-74
2022/07/28 05:45:48;;;;;;;3.63;1.33;;;21.30;54.40;;;-142.21;62.98;112049.66;5071472;28;20271;-70
2022/07/28 05:48:18;;;;;;;2.07;1.37;;;21.40;53.90;;;-142.21;62.23;112049.66;5074909;28;20201;-73
2022/07/28 05:50:47;;;;;;;1.80;1.30;;;21.40;54.30;;;-142.21;61.78;112049.66;5057203;28;20219;-72
2022/07/28 05:53:14;;;;;;;2.73;1.50;;;21.50;53.50;;;-142.21;59.96;112049.66;5056410;28;20206;-72
2022/07/28 05:55:42;;;;;;;1.63;1.00;;;21.60;53.10;;;-142.21;59.54;112049.66;5055535;28;20296;-74
2022/07/28 05:58:09;;;;;;;1.30;1.20;;;21.60;52.90;;;-142.21;58.90;112049.66;5056533;28;20265;-74
2022/07/28 06:00:36;;;;;;;3.10;1.47;;;21.70;52.80;;;-142.21;58.87;112049.66;5072631;28;20201;-73
2022/07/28 06:03:04;;;;;;;3.27;1.30;;;21.70;52.60;;;-142.21;58.78;112049.66;5062659;28;20236;-73
2022/07/28 06:05:33;;;;;;;2.83;1.47;;;21.80;52.70;;;-142.21;58.61;112049.66;5068582;28;20309;-74
2022/07/28 06:08:01;;;;;;;3.37;1.67;;;21.80;52.50;;;-142.21;58.94;112049.66;5077382;28;20205;-75
2022/07/28 06:10:57;;;;;;;1.40;1.30;;;21.90;52.50;;;-142.21;57.46;112049.66;5090288;28;20320;-74
2022/07/28 06:13:18;;;;;;;2.20;1.73;;;21.90;52.10;;;-142.21;56.23;112049.66;5076593;28;20236;-72
2022/07/28 06:15:47;;;;;;;2.90;1.50;;;22.00;52.00;;;-142.21;55.46;112049.66;5056200;28;20208;-73
2022/07/28 06:18:17;;;;;;;1.97;1.10;;;22.00;51.60;;;-142.21;55.14;112049.66;5073936;28;20300;-73
2022/07/28 06:20:47;;;;;;;1.83;1.50;;;22.00;51.60;;;-142.21;54.20;112049.66;5074435;28;20201;-73
2022/07/28 06:23:22;;;;;;;2.77;1.57;;;22.10;51.30;;;-142.21;53.56;112049.66;5072494;28;20233;-73
2022/07/28 06:25:49;;;;;;;2.80;1.23;;;22.20;50.90;;;-142.21;54.08;112049.66;5050378;28;20211;-73
2022/07/28 06:28:18;;;;;;;3.00;1.60;;;22.30;51.00;;;-142.21;54.14;112049.66;5074666;28;20627;-72
2022/07/28 06:30:46;;;;;;;3.50;1.70;;;22.40;51.30;;;-142.21;53.34;112049.66;5059749;28;20828;-73
2022/07/28 06:33:14;;;;;;;1.97;1.40;;;22.40;51.10;;;-142.21;52.22;112049.66;5055843;28;20593;-73
2022/07/28 06:35:42;;;;;;;2.17;1.57;;;22.50;50.70;;;-142.21;52.08;112049.66;5054136;28;20213;-72
2022/07/28 06:38:09;;;;;;;2.93;1.60;;;22.60;50.50;;;-142.21;52.34;112049.66;5054412;28;20301;-73
2022/07/28 06:40:38;;;;;;;1.60;1.30;;;22.70;51.10;;;-142.21;52.49;112049.66;5073630;28;20284;-73
2022/07/28 06:43:07;;;;;;;2.13;1.53;;;22.70;50.60;;;-142.21;52.26;112049.66;5074359;28;20624;-73
2022/07/28 06:45:34;;;;;;;3.57;1.53;;;22.80;50.50;;;-142.21;49.78;112049.66;5074557;28;20197;-73
2022/07/28 06:48:01;;;;;;;4.43;1.37;;;22.80;49.80;;;-142.21;50.10;112049.66;5073208;28;20292;-72
2022/07/28 06:50:31;;;;;;;1.17;1.17;;;22.90;50.00;;;-142.21;49.69;112049.66;5072356;28;20245;-72
2022/07/28 06:52:59;;;;;;;10.37;2.33;;;23.00;49.80;;;-142.21;50.85;112049.66;5074553;28;20214;-73
2022/07/28 06:55:27;;;;;;;2.83;1.40;;;23.10;50.10;;;-142.21;50.88;112049.66;5074054;28;20208;-73
2022/07/28 06:57:57;;;;;;;3.63;1.57;;;23.30;50.30;;;-142.21;50.12;112049.66;5072047;28;20282;-73
2022/07/28 07:00:24;;;;;;;2.17;1.50;;;23.30;50.40;;;-142.21;50.87;112049.66;5074446;28;20259;-73
2022/07/28 07:02:51;;;;;;;1.97;1.33;;;23.50;50.20;;;-142.21;49.82;112049.66;5072405;28;20211;-73
2022/07/28 07:05:19;;;;;;;4.97;1.80;;;23.60;49.80;;;-142.21;49.78;112049.66;5074106;28;20233;-73
2022/07/28 07:07:46;;;;;;;1.50;1.40;;;23.70;50.40;;;-142.21;49.31;112049.66;5037002;28;20233;-73
2022/07/28 07:10:14;;;;;;;1.33;1.23;;;23.80;49.60;;;-142.21;49.39;112049.66;5073529;28;20330;-73
2022/07/28 07:12:41;;;;;;;2.27;1.47;;;23.90;49.70;;;-142.21;48.01;112049.66;5073162;28;20296;-73
2022/07/28 07:15:13;;;;;;;1.97;1.53;;;24.00;49.10;;;-142.21;47.93;112049.66;5073557;28;20638;-73
2022/07/28 07:17:40;;;;;;;1.57;1.30;;;24.10;49.10;;;-142.21;47.58;112049.66;5073497;28;20196;-72
2022/07/28 07:20:12;;;;;;;1.93;1.43;;;24.10;48.80;;;-142.21;47.02;112049.66;5073923;28;20565;-73
2022/07/28 07:22:43;;;;;;;2.23;1.70;;;24.10;48.50;;;-142.21;48.05;112049.66;5073125;28;20189;-73
2022/07/28 07:25:12;;;;;;;4.27;1.60;;;24.20;49.00;;;-142.21;47.54;112049.66;5073736;28;20626;-73
2022/07/28 07:27:39;;;;;;;3.73;1.80;;;24.30;48.80;;;-142.21;47.62;112049.66;5072590;28;20288;-73
2022/07/28 07:30:10;;;;;;;2.17;1.63;;;24.40;48.80;;;-142.21;48.07;112049.66;5073545;28;20319;-72
2022/07/28 07:32:38;;;;;;;1.80;1.60;;;24.50;48.90;;;-142.21;46.76;112049.66;5072899;28;20292;-72
2022/07/28 07:35:07;;;;;;;2.20;1.33;;;24.60;48.50;;;-142.21;45.68;112049.66;5073792;28;20200;-73
2022/07/28 07:37:35;;;;;;;3.10;2.00;;;24.70;48.10;;;-142.21;44.99;112049.66;5053967;28;20285;-73
2022/07/28 07:40:05;;;;;;;1.63;1.50;;;24.70;47.70;;;-142.21;46.52;112049.66;5068598;28;20197;-72
2022/07/28 07:42:32;;;;;;;1.83;1.60;;;24.70;48.30;;;-142.21;46.37;112049.66;5072779;28;20266;-72
2022/07/28 07:45:00;;;;;;;2.90;1.77;;;24.80;48.30;;;-142.21;46.17;112049.66;5073467;28;20287;-73
2022/07/28 07:47:28;;;;;;;4.40;2.00;;;25.00;48.20;;;-142.21;45.72;112049.66;5073480;28;20232;-72
2022/07/28 07:49:55;;;;;;;3.00;1.77;;;25.10;48.00;;;-142.21;46.52;112049.66;5073087;28;20260;-73
2022/07/28 07:52:23;;;;;;;2.87;1.70;;;25.20;48.20;;;-142.21;45.03;112049.66;5062706;28;20208;-73
2022/07/28 07:54:50;;;;;;;3.87;1.80;;;25.30;48.20;;;-142.21;45.08;112049.66;5052337;28;20328;-71
2022/07/28 07:57:17;;;;;;;2.23;1.70;;;25.40;47.40;;;-142.21;45.02;112049.66;5053113;28;20209;-74
2022/07/28 07:59:44;;;;;;;3.53;1.83;;;25.50;47.50;;;-142.21;44.78;112049.66;5052116;28;20244;-73
2022/07/28 08:02:11;;;;;;;4.00;1.90;;;25.60;47.30;;;-142.21;45.42;112049.66;5052801;28;20292;-73
2022/07/28 08:04:40;;;;;;;5.00;1.80;;;25.80;47.70;;;-142.21;45.19;112049.66;5052309;28;20222;-73
2022/07/28 08:07:07;;;;;;;3.40;2.20;;;25.80;47.40;;;-142.21;44.21;112049.66;5054164;28;20255;-73
2022/07/28 08:09:35;;;;;;;2.70;1.97;;;25.90;46.80;;;-142.21;44.99;112049.66;5071130;28;20240;-73
2022/07/28 08:12:02;;;;;;;2.97;2.00;;;26.10;47.20;;;-142.21;44.15;112049.66;5072622;28;20236;-73
2022/07/28 08:14:30;;;;;;;3.20;2.13;;;26.10;47.40;;;-142.21;44.18;112049.66;5072734;28;20296;-73
2022/07/28 08:16:58;;;;;;;3.50;1.90;;;26.20;46.90;;;-142.21;44.74;112049.66;5072675;28;20212;-73
2022/07/28 08:19:25;;;;;;;3.00;2.10;;;26.30;47.00;;;-142.21;44.70;112049.66;5072618;28;20646;-73
2022/07/28 08:21:55;;;;;;;2.93;2.33;;;26.30;47.00;;;-142.21;44.34;112049.66;5072266;28;20209;-72
2022/07/28 08:24:22;;;;;;;2.13;1.87;;;26.40;46.70;;;-142.21;44.38;112049.66;5070970;28;20205;-72
2022/07/28 08:26:51;;;;;;;2.17;1.83;;;26.40;46.80;;;-142.21;44.88;112049.66;5072105;28;20300;-72
2022/07/28 08:29:18;;;;;;;3.30;2.03;;;26.50;46.90;;;-142.21;44.26;112049.66;5072885;28;20255;-72
2022/07/28 08:31:45;;;;;;;2.17;1.97;;;26.50;46.70;;;-142.21;44.14;112049.66;5071853;28;20320;-73
2022/07/28 08:34:12;;;;;;;1.97;1.80;;;26.50;46.50;;;-142.21;44.69;112049.66;5072939;28;20247;-73
2022/07/28 08:36:40;;;;;;;4.53;2.03;;;26.50;46.80;;;-142.21;45.93;112049.66;5060036;28;20531;-73
2022/07/28 08:39:08;;;;;;;2.70;2.10;;;26.60;47.30;;;-142.21;44.40;112049.66;5053655;28;20599;-73
2022/07/28 08:41:46;;;;;;;3.40;2.00;;;26.70;46.80;;;-142.21;44.62;112049.66;5053123;28;20292;-74
2022/07/28 08:44:23;;;;;;;2.73;2.03;;;26.80;47.60;;;-142.21;44.86;112049.66;5052440;28;20772;-73
2022/07/28 08:46:52;;;;;;;3.00;2.37;;;26.90;46.90;;;-142.21;44.47;112049.66;5051760;28;20281;-73
2022/07/28 08:49:20;;;;;;;3.07;2.10;;;27.00;46.90;;;-142.21;44.19;112049.66;5052526;28;20251;-72
2022/07/28 08:51:49;;;;;;;3.47;1.80;;;27.10;46.70;;;-142.21;43.67;112049.66;5052211;28;20316;-73
2022/07/28 08:54:25;;;;;;;4.30;2.07;;;27.20;46.50;;;-142.21;43.97;112049.66;5053038;28;20293;-73
2022/07/28 08:56:54;;;;;;;3.87;2.10;;;27.40;46.50;;;-142.21;43.26;112049.66;5069765;28;20296;-72
2022/07/28 08:59:24;;;;;;;2.43;2.23;;;27.50;46.00;;;-142.21;42.48;112049.66;5054260;28;20201;-73
2022/07/28 09:01:53;;;;;;;3.17;2.77;;;27.50;45.90;;;-142.21;42.37;112049.66;5064023;28;20221;-72
2022/07/28 09:04:21;;;;;;;4.20;2.60;;;27.70;45.80;;;-142.21;43.03;112049.66;5057153;28;20746;-72
2022/07/28 09:06:49;;;;;;;3.10;2.60;;;27.80;45.90;;;-142.21;42.01;112049.66;5052111;28;20256;-72
2022/07/28 09:09:16;;;;;;;2.30;2.10;;;27.80;45.50;;;-142.21;43.03;112049.66;5068494;28;20277;-71
2022/07/28 09:11:46;;;;;;;3.23;2.60;;;27.90;45.80;;;-142.21;42.05;112049.66;5071811;28;20264;-73
2022/07/28 09:14:14;;;;;;;2.33;2.10;;;28.00;45.40;;;-142.21;42.86;112049.66;5072553;28;20555;-73
2022/07/28 09:16:41;;;;;;;5.47;3.03;;;28.10;45.80;;;-142.21;42.02;112049.66;5055447;28;20203;-72
2022/07/28 09:19:08;;;;;;;3.80;2.40;;;28.20;45.30;;;-142.21;42.11;112049.66;5054886;28;20216;-72
2022/07/28 09:21:36;;;;;;;2.47;2.27;;;28.20;45.40;;;-142.21;42.60;112049.66;5054305;28;20293;-72
2022/07/28 09:24:03;;;;;;;3.60;2.60;;;28.30;45.70;;;-142.21;42.33;112049.66;5055898;28;20669;-73
2022/07/28 09:26:31;;;;;;;4.03;2.57;;;28.30;46.10;;;-142.21;42.26;112049.66;5075069;28;20206;-72
2022/07/28 09:29:01;;;;;;;3.93;2.37;;;28.30;45.20;;;-142.21;42.60;112049.66;5074411;28;20259;-71
2022/07/28 09:31:29;;;;;;;3.20;2.50;;;28.40;45.40;;;-142.21;43.40;112049.66;5076072;28;20286;-73
2022/07/28 09:34:00;;;;;;;2.73;2.53;;;28.50;45.80;;;-142.21;43.12;112049.66;5075744;28;20234;-74
2022/07/28 09:36:29;;;;;;;3.07;2.50;;;28.60;45.80;;;-142.21;41.79;112049.66;5077380;28;20244;-74
2022/07/28 09:38:57;;;;;;;3.30;3.00;;;28.70;45.00;;;-142.21;43.22;112049.66;5082243;28;20200;-73
2022/07/28 09:41:25;;;;;;;5.17;2.83;;;28.90;45.40;;;-142.21;42.85;112049.66;5062838;28;20235;-73
2022/07/28 09:43:53;;;;;;;3.07;2.20;;;29.00;45.80;;;-142.21;41.62;112049.66;5053708;28;20218;-74
2022/07/28 09:46:24;;;;;;;4.50;2.87;;;29.10;44.90;;;-142.21;42.67;112049.66;5055519;28;20762;-72
2022/07/28 09:48:56;;;;;;;3.50;2.50;;;29.20;45.30;;;-142.21;41.92;112049.66;5055469;28;20223;-73
2022/07/28 09:51:29;;;;;;;3.70;2.40;;;29.30;45.10;;;-142.21;40.60;112049.66;5055665;28;20599;-72
2022/07/28 09:54:09;;;;;;;3.37;2.77;;;29.40;44.30;;;-142.21;41.14;112049.66;5054848;28;20266;-73
2022/07/28 09:56:39;;;;;;;2.90;2.60;;;29.50;44.40;;;-142.21;41.55;112049.66;5055415;28;20277;-74
2022/07/28 09:59:08;;;;;;;3.97;2.70;;;29.60;44.70;;;-142.21;41.37;112049.66;5055233;28;20213;-73
2022/07/28 10:01:52;;;;;;;3.73;3.00;;;29.80;44.50;;;-142.21;40.79;112049.66;5056150;28;20207;-73
2022/07/28 10:04:31;;;;;;;3.20;2.90;;;29.90;44.10;;;-142.21;39.51;112049.66;5055248;28;20209;-74
2022/07/28 10:07:05;;;;;;;3.50;2.60;;;29.90;43.10;;;-142.21;40.76;112049.66;5054428;28;20756;-73
2022/07/28 10:09:32;;;;;;;6.70;3.33;;;30.00;44.00;;;-142.21;40.65;112049.66;5054433;28;20240;-74
2022/07/28 10:12:20;;;;;;;2.93;2.57;;;30.10;44.10;;;-142.21;39.75;112049.66;5069568;28;20225;-72
2022/07/28 10:14:49;;;;;;;3.17;2.73;;;30.20;43.30;;;-142.21;38.52;112049.66;5074653;28;20242;-73
2022/07/28 10:17:33;;;;;;;3.53;2.97;;;30.40;42.90;;;-142.21;39.46;112049.66;5075029;28;20204;-72
2022/07/28 10:20:04;;;;;;;3.47;2.90;;;30.50;43.10;;;-142.21;40.00;112049.66;5074503;28;20193;-72